Time;durP1;ratioP1;P1;durP2;ratioP2;P2;SDS_P1;SDS_P2;PMS_P1;PMS_P2;Temp;Humidity;BMP_temperature;BMP_pressure;BME280_temperature;BME280_humidity;BME280_pressure;Samples;Min_cycle;Max_cycle;Signal;HPM_P1;HPM_P2
2022/05/08 00:03:46;;;;;;;2.40;2.20;;;19.30;42.40;;;17.15;45.21;101874.22;12245182;19;20007;-79
2022/05/08 00:07:48;;;;;;;2.63;2.15;;;19.30;42.60;;;17.58;45.34;101950.63;12247585;19;20010;-79
2022/05/08 00:11:49;;;;;;;2.40;2.17;;;19.40;42.60;;;17.55;45.47;101949.06;12246556;19;20495;-79
2022/05/08 00:15:51;;;;;;;2.75;2.20;;;19.40;42.70;;;17.57;45.57;101956.88;12249708;19;20468;-79
2022/05/08 00:19:53;;;;;;;2.75;2.03;;;19.30;42.80;;;17.51;45.77;101942.25;12245446;19;20511;-79
2022/05/08 00:23:54;;;;;;;5.43;2.10;;;19.40;42.80;;;17.50;45.57;101937.94;12243986;19;20386;-79
2022/05/08 00:27:56;;;;;;;3.38;1.83;;;19.40;42.80;;;17.51;45.65;101952.84;12248554;19;20010;-79
2022/05/08 00:31:58;;;;;;;1.98;1.88;;;19.40;42.70;;;17.43;45.70;101934.00;12247851;19;20496;-79
2022/05/08 00:36:00;;;;;;;1.90;1.60;;;19.30;42.70;;;17.35;45.86;101931.00;12246481;19;20036;-79
2022/05/08 00:40:01;;;;;;;1.98;1.77;;;19.30;42.70;;;17.24;45.56;101911.41;12245996;19;20543;-79
2022/05/08 00:44:04;;;;;;;1.90;1.67;;;19.30;42.70;;;17.39;45.72;101927.19;12244522;19;20003;-79
2022/05/08 00:48:06;;;;;;;2.08;1.60;;;19.30;42.90;;;17.42;46.01;101941.06;12246446;19;20014;-79
2022/05/08 00:52:08;;;;;;;3.28;1.80;;;19.30;43.00;;;17.38;45.89;101938.72;12246261;19;20029;-79
2022/05/08 00:56:13;;;;;;;1.70;1.60;;;19.30;42.90;;;17.30;45.93;101922.53;12244158;19;20010;-79
2022/05/08 01:00:16;;;;;;;2.55;1.55;;;19.30;42.80;;;17.40;46.00;101939.47;12245709;19;20759;-79
2022/05/08 01:04:18;;;;;;;1.88;1.77;;;19.30;42.70;;;17.25;45.95;101920.16;12242016;19;20023;-79
2022/05/08 01:08:21;;;;;;;1.40;1.30;;;19.40;42.60;;;17.32;45.92;101939.97;12244322;19;20010;-79
2022/05/08 01:12:24;;;;;;;1.50;1.40;;;19.20;42.50;;;16.92;45.86;101880.94;12245136;19;20015;-79
2022/05/08 01:16:26;;;;;;;1.70;1.60;;;19.10;42.30;;;17.12;45.89;101909.56;12241680;19;20374;-79
2022/05/08 01:20:27;;;;;;;1.42;1.33;;;18.90;42.50;;;17.24;45.92;101923.78;12243676;19;20345;-79
2022/05/08 01:24:29;;;;;;;2.65;1.48;;;19.00;42.20;;;17.00;45.97;101900.63;12240500;19;20011;-79
2022/05/08 01:28:30;;;;;;;1.33;1.23;;;19.20;42.30;;;17.17;46.07;101925.94;12243961;19;20019;-79
2022/05/08 01:32:32;;;;;;;1.70;1.50;;;19.20;42.30;;;17.13;45.70;101927.09;12242832;19;20058;-79
2022/05/08 01:36:34;;;;;;;1.38;1.27;;;19.20;42.40;;;17.31;45.81;101950.59;12242577;19;20416;-79
2022/05/08 01:40:36;;;;;;;1.60;1.23;;;19.00;42.30;;;17.27;46.09;101943.84;12244040;19;20010;-79
2022/05/08 01:44:38;;;;;;;1.45;1.35;;;19.10;42.30;;;17.25;46.34;101938.66;12241434;19;20018;-79
2022/05/08 01:48:39;;;;;;;1.58;1.48;;;19.20;42.40;;;17.28;45.97;101941.09;12232331;19;20015;-79
2022/05/08 01:52:41;;;;;;;1.60;1.50;;;19.20;42.50;;;17.27;46.06;101944.69;12242987;19;20082;-79
2022/05/08 01:56:43;;;;;;;1.45;1.35;;;19.20;42.40;;;17.07;45.96;101930.13;12243091;19;20441;-79
2022/05/08 02:00:46;;;;;;;1.58;1.40;;;19.20;42.40;;;17.17;46.00;101941.78;12244096;19;20017;-79
2022/05/08 02:04:48;;;;;;;1.58;1.48;;;18.90;42.30;;;17.11;46.00;101944.81;12238541;19;20014;-79
2022/05/08 02:08:52;;;;;;;1.98;1.40;;;19.00;42.00;;;16.95;45.95;101939.66;12238589;19;20385;-79
2022/05/08 02:12:54;;;;;;;1.20;1.15;;;19.00;42.00;;;16.74;46.10;101915.44;12239726;19;20007;-79
2022/05/08 02:16:57;;;;;;;1.52;1.25;;;18.90;41.90;;;16.89;45.99;101953.22;12243642;19;20022;-78
2022/05/08 02:20:58;;;;;;;1.02;1.02;;;18.90;41.90;;;16.86;45.97;101971.06;12241582;19;20044;-78
2022/05/08 02:25:01;;;;;;;2.00;1.15;;;18.80;41.90;;;16.74;46.09;101960.28;12239970;19;20010;-78
2022/05/08 02:29:02;;;;;;;0.90;0.90;;;18.70;41.80;;;16.71;46.10;101965.72;12239464;19;20031;-78
2022/05/08 02:33:04;;;;;;;1.15;1.05;;;18.60;41.70;;;16.44;46.04;101930.50;12241898;19;20032;-78
2022/05/08 02:37:06;;;;;;;1.98;1.27;;;18.60;41.80;;;16.58;46.16;101957.75;12238528;19;20038;-78
2022/05/08 02:41:08;;;;;;;3.95;1.00;;;18.60;41.90;;;16.58;45.92;101973.56;12241755;19;20019;-78
2022/05/08 02:45:09;;;;;;;1.67;1.40;;;18.50;41.90;;;16.55;46.13;101967.59;12238359;19;20084;-78
2022/05/08 02:49:13;;;;;;;2.35;1.00;;;18.50;42.00;;;16.47;46.03;101961.94;12239200;19;20025;-78
2022/05/08 02:53:15;;;;;;;1.00;0.98;;;18.70;42.20;;;16.50;46.12;101980.22;12239344;19;20014;-78
2022/05/08 03:01:37;;;;;;;0.80;0.80;;;18.40;42.20;;;16.32;46.31;101964.56;12239667;19;20015;-78
2022/05/08 03:05:47;;;;;;;0.88;0.88;;;18.30;42.10;;;16.32;46.49;101971.63;12236663;19;20014;-78
2022/05/08 03:09:50;;;;;;;0.70;0.70;;;18.20;42.20;;;16.32;46.41;101977.75;12238456;19;20006;-78
2022/05/08 03:13:52;;;;;;;0.80;0.75;;;18.30;42.10;;;16.26;46.33;101972.84;12236161;19;20011;-78
2022/05/08 03:17:56;;;;;;;0.73;0.73;;;18.10;42.00;;;16.32;46.25;101979.53;12237050;19;20011;-78
2022/05/08 03:21:58;;;;;;;0.93;0.68;;;18.20;42.10;;;16.28;46.26;101981.53;12247304;19;20022;-78
2022/05/08 03:26:06;;;;;;;1.15;0.77;;;18.20;42.10;;;16.19;46.63;101971.50;12250661;19;20029;-78
2022/05/08 03:30:09;;;;;;;0.73;0.68;;;18.20;42.20;;;16.11;46.31;101986.91;12249813;19;20026;-78
2022/05/08 03:34:11;;;;;;;1.23;1.00;;;18.10;42.20;;;16.07;46.65;101981.00;12246923;19;20463;-78
2022/05/08 03:38:13;;;;;;;0.77;0.77;;;17.90;42.40;;;16.03;46.53;102003.16;12246857;19;20022;-78
2022/05/08 03:42:14;;;;;;;0.80;0.80;;;18.00;42.60;;;16.13;46.63;102020.16;12248192;19;20014;-78
2022/05/08 03:46:16;;;;;;;1.08;0.93;;;18.10;42.80;;;16.10;46.96;101995.78;12248102;19;20006;-78
2022/05/08 03:50:20;;;;;;;0.85;0.85;;;18.10;43.40;;;15.86;47.06;101975.16;12246389;19;20425;-78
2022/05/08 03:54:21;;;;;;;1.35;1.17;;;18.10;44.10;;;15.75;47.36;101972.31;12243845;19;20520;-80
2022/05/08 03:58:23;;;;;;;2.05;1.00;;;17.90;44.00;;;15.88;47.36;101998.81;12242821;19;20022;-79
2022/05/08 04:02:25;;;;;;;1.13;0.88;;;17.90;44.60;;;15.81;47.75;101997.44;12244562;19;20039;-80
2022/05/08 04:06:27;;;;;;;1.58;0.98;;;17.80;44.70;;;15.91;47.98;102017.06;12244049;19;20003;-81
2022/05/08 04:10:28;;;;;;;1.90;1.23;;;18.00;45.20;;;15.95;47.97;102018.56;12244543;19;20018;-82
2022/05/08 04:14:30;;;;;;;2.00;1.20;;;17.90;45.40;;;15.91;48.21;102030.25;12242083;19;20031;-80
2022/05/08 04:18:32;;;;;;;1.83;1.13;;;17.90;45.70;;;15.71;48.40;102015.53;12241875;19;20011;-80
2022/05/08 04:26:54;;;;;;;2.03;1.15;;;17.80;45.80;;;15.82;48.53;102039.47;12243178;19;20018;-80
2022/05/08 04:30:55;;;;;;;2.05;1.17;;;17.70;46.10;;;15.76;49.02;102031.94;12244578;19;20049;-80
2022/05/08 04:34:57;;;;;;;1.60;0.95;;;17.70;46.30;;;15.78;48.92;102035.34;12241578;19;20018;-80
2022/05/08 04:38:59;;;;;;;1.48;1.00;;;17.80;46.50;;;15.78;48.99;102032.69;12242086;19;20014;-80
2022/05/08 04:43:01;;;;;;;1.15;1.05;;;17.60;46.40;;;15.79;49.09;102042.28;12243632;19;20031;-80
2022/05/08 04:47:03;;;;;;;1.30;1.20;;;17.90;46.70;;;15.78;49.28;102029.22;12244864;19;20010;-80
2022/05/08 04:51:05;;;;;;;1.45;1.10;;;17.80;46.80;;;15.96;49.32;102049.28;12246743;19;20351;-80
2022/05/08 04:55:07;;;;;;;1.80;1.40;;;17.90;47.10;;;15.86;49.31;102021.75;12240703;19;20373;-80
2022/05/08 04:59:09;;;;;;;2.80;1.40;;;17.90;47.10;;;15.90;49.39;102049.59;12242933;19;20018;-80
2022/05/08 05:03:11;;;;;;;1.73;1.30;;;17.90;47.00;;;15.86;49.67;102059.47;12243476;19;20011;-80
2022/05/08 05:07:13;;;;;;;2.60;1.65;;;17.90;47.00;;;15.61;49.76;102038.88;12244104;19;20007;-80
2022/05/08 05:11:14;;;;;;;1.45;1.35;;;17.90;47.00;;;15.57;50.00;102039.97;12244109;19;20017;-80
2022/05/08 05:15:16;;;;;;;1.83;1.17;;;17.80;47.20;;;15.56;50.08;102038.28;12244334;19;20074;-80
2022/05/08 05:19:18;;;;;;;1.40;1.15;;;17.80;47.30;;;15.79;49.97;102079.16;12238868;19;20018;-80
2022/05/08 05:23:19;;;;;;;1.52;1.42;;;17.60;47.10;;;15.77;49.95;102059.13;12242595;19;20019;-80
2022/05/08 05:27:21;;;;;;;1.70;1.50;;;17.80;47.40;;;15.83;50.21;102074.59;12240784;19;20014;-80
2022/05/08 05:31:24;;;;;;;2.05;1.50;;;17.80;47.60;;;15.78;50.11;102061.69;12240686;19;20026;-80
2022/05/08 05:35:26;;;;;;;2.63;1.60;;;17.80;47.60;;;15.87;50.02;102084.84;12239471;19;20393;-80
2022/05/08 05:39:27;;;;;;;2.05;1.67;;;17.90;47.70;;;15.78;50.17;102074.84;12237849;19;20046;-80
2022/05/08 05:43:29;;;;;;;2.88;1.30;;;17.70;47.60;;;15.97;50.36;102098.38;12236933;19;20097;-80
2022/05/08 05:51:50;;;;;;;1.33;1.23;;;17.90;47.60;;;15.88;50.28;102078.69;12241005;19;20035;-81
2022/05/08 05:55:54;;;;;;;2.50;1.30;;;17.90;47.60;;;15.93;50.28;102079.28;12238825;19;20018;-79
2022/05/08 05:59:55;;;;;;;2.08;1.38;;;17.80;47.90;;;16.18;50.52;102101.59;12238939;19;20025;-80
2022/05/08 06:03:57;;;;;;;2.03;1.42;;;18.00;48.10;;;16.30;50.57;102111.44;12238613;19;20506;-80
2022/05/08 06:07:58;;;;;;;1.27;1.10;;;18.00;48.20;;;16.31;50.64;102081.50;12240114;19;20031;-82
2022/05/08 06:12:03;;;;;;;3.35;1.75;;;18.10;48.10;;;16.45;50.35;102098.31;12238582;19;20460;-81
2022/05/08 06:16:05;;;;;;;4.25;1.50;;;18.40;47.80;;;16.50;50.51;102109.44;12240023;19;20719;-80
2022/05/08 06:20:07;;;;;;;6.82;1.73;;;18.40;47.80;;;16.44;50.62;102092.19;12235986;19;20018;-83
2022/05/08 06:24:10;;;;;;;3.40;1.48;;;18.50;47.60;;;16.55;50.45;102102.09;12239223;19;20074;-83
2022/05/08 06:28:15;;;;;;;2.35;1.50;;;18.40;47.60;;;16.53;50.55;102096.09;12238719;19;20035;-82
2022/05/08 06:32:16;;;;;;;1.80;1.30;;;18.80;47.60;;;16.53;50.29;102093.44;12239541;19;20022;-82
2022/05/08 06:36:18;;;;;;;2.22;1.67;;;18.50;47.20;;;16.60;50.16;102110.59;12236173;19;20021;-82
2022/05/08 06:40:21;;;;;;;3.80;1.77;;;18.50;47.30;;;16.52;50.39;102095.22;12236830;19;20354;-82
2022/05/08 06:44:23;;;;;;;1.33;1.23;;;18.50;47.30;;;16.69;50.35;102123.25;12234524;19;20628;-83
2022/05/08 06:48:27;;;;;;;4.30;1.70;;;18.60;47.30;;;16.69;50.62;102118.00;12236528;19;20360;-83
2022/05/08 06:52:29;;;;;;;2.72;1.27;;;18.60;47.40;;;16.75;50.54;102127.31;12240464;19;20006;-81
2022/05/08 06:56:34;;;;;;;3.05;1.42;;;18.70;47.10;;;16.48;50.39;102084.97;12246689;19;20018;-83
2022/05/08 07:04:56;;;;;;;2.60;1.60;;;18.60;47.10;;;16.64;50.45;102114.78;12247122;19;20026;-82
2022/05/08 07:08:58;;;;;;;4.75;1.63;;;18.60;46.70;;;16.77;50.23;102138.69;12249768;19;20033;-83
2022/05/08 07:13:00;;;;;;;3.35;2.03;;;18.70;46.60;;;16.70;50.52;102124.94;12247254;19;20011;-84
2022/05/08 07:17:02;;;;;;;2.13;1.25;;;18.70;47.10;;;16.88;50.30;102151.25;12246660;19;20017;-86
2022/05/08 07:21:05;;;;;;;5.45;1.50;;;18.80;47.30;;;16.94;50.61;102143.81;12250003;19;20034;-81
2022/05/08 07:25:07;;;;;;;5.65;1.80;;;18.70;46.80;;;16.72;50.43;102086.16;12245829;19;20472;-82
2022/05/08 07:29:09;;;;;;;5.28;1.73;;;18.90;47.00;;;17.02;50.16;102132.78;12249204;19;20105;-83
2022/05/08 07:33:10;;;;;;;4.15;1.67;;;18.90;46.10;;;17.01;50.09;102118.75;12246095;19;20037;-83
2022/05/08 07:37:12;;;;;;;3.63;1.60;;;19.00;46.50;;;17.11;50.37;102108.47;12246589;19;20172;-83
2022/05/08 07:41:17;;;;;;;4.55;1.80;;;19.00;47.00;;;17.50;50.37;102140.44;12247731;19;20031;-84
2022/05/08 07:45:19;;;;;;;4.53;1.77;;;19.10;46.80;;;17.45;50.08;102111.69;12248523;19;20019;-81
2022/05/08 07:49:20;;;;;;;3.65;1.70;;;19.30;46.60;;;17.81;49.89;102144.72;12246403;19;20081;-81
2022/05/08 07:53:22;;;;;;;3.15;1.55;;;19.50;46.60;;;17.98;49.96;102141.81;12246139;19;20078;-82
2022/05/08 07:57:24;;;;;;;5.32;1.77;;;19.70;46.40;;;18.10;49.80;102154.28;12245381;19;20018;-83
2022/05/08 08:01:25;;;;;;;3.60;1.35;;;19.80;45.80;;;18.20;49.66;102157.19;12244765;19;20010;-82
2022/05/08 08:05:27;;;;;;;6.10;1.60;;;19.90;46.00;;;18.32;49.45;102137.88;12241000;19;20077;-88
2022/05/08 08:09:30;;;;;;;1.98;1.30;;;20.10;45.10;;;18.50;49.56;102153.50;12242586;19;20026;-85
2022/05/08 08:13:34;;;;;;;5.00;1.50;;;20.20;45.80;;;18.67;49.13;102155.00;12235215;19;20015;-88
2022/05/08 08:17:36;;;;;;;4.57;1.90;;;20.40;45.10;;;18.64;48.94;102126.13;12238299;19;20006;-88
2022/05/08 08:21:37;;;;;;;5.95;1.90;;;20.70;45.10;;;18.74;48.91;102141.31;12237918;19;20472;-87
2022/05/08 08:25:39;;;;;;;3.80;2.13;;;20.60;44.80;;;18.90;49.05;102133.19;12233726;19;20078;-88
2022/05/08 08:29:41;;;;;;;3.88;2.50;;;20.70;44.80;;;19.06;48.95;102135.59;12231584;19;20014;-88
2022/05/08 08:33:44;;;;;;;5.43;2.35;;;21.10;44.90;;;19.21;48.90;102139.00;12235535;19;20033;-90
2022/05/08 08:37:46;;;;;;;6.28;2.10;;;21.00;44.80;;;19.13;48.70;102104.28;12236235;19;20090;-89
2022/05/08 08:42:09;;;;;;;3.03;2.10;;;21.00;44.80;;;19.52;48.82;102147.47;12237333;19;20033;-87
2022/05/08 08:50:33;;;;;;;5.10;2.25;;;21.20;44.60;;;19.74;48.70;102147.69;12238801;19;20041;-88
2022/05/08 08:54:34;;;;;;;3.90;1.77;;;21.60;44.20;;;20.02;48.41;102165.09;12233414;19;20017;-87
2022/05/08 08:58:36;;;;;;;5.65;2.38;;;21.70;44.40;;;20.20;47.75;102160.28;12233273;19;20052;-90
2022/05/08 09:02:38;;;;;;;3.40;2.20;;;21.80;43.30;;;20.32;47.52;102164.66;12098581;19;2699788;-89
2022/05/08 09:06:43;;;;;;;5.70;2.30;;;22.00;42.60;;;20.42;47.01;102162.19;12241927;19;20007;-91
2022/05/08 09:10:45;;;;;;;4.22;2.15;;;22.00;42.50;;;20.58;46.94;102164.59;12241385;19;20134;-89
2022/05/08 09:14:47;;;;;;;3.20;2.10;;;22.20;42.60;;;20.76;47.17;102162.34;12237550;19;20018;-90
2022/05/08 09:18:49;;;;;;;4.35;2.10;;;22.40;42.70;;;20.77;46.80;102154.28;12234667;19;20043;-88
2022/05/08 09:23:10;;;;;;;4.32;2.10;;;22.50;42.00;;;20.97;46.63;102170.50;12241016;19;20078;-85
2022/05/08 09:27:17;;;;;;;7.38;2.15;;;22.60;41.90;;;21.00;46.35;102165.78;12239280;19;20396;-84
2022/05/08 09:31:20;;;;;;;3.45;1.70;;;22.80;41.70;;;21.10;46.45;102167.75;12238722;19;20015;-84
2022/05/08 09:35:21;;;;;;;4.70;1.83;;;22.80;41.60;;;21.15;46.23;102165.59;12237572;19;20010;-85
2022/05/08 09:39:23;;;;;;;3.58;1.80;;;22.80;41.60;;;21.24;46.08;102164.88;12236223;19;20090;-84
2022/05/08 09:43:28;;;;;;;3.83;2.00;;;22.90;41.20;;;21.27;45.90;102161.13;12232164;19;20014;-85
2022/05/08 09:47:44;;;;;;;2.35;1.13;;;23.00;41.20;;;21.44;45.54;102158.00;12229659;19;20030;-85
2022/05/08 09:51:46;;;;;;;;;;;23.20;40.50;;;21.55;46.00;102158.03;12234647;19;20018;-82
2022/05/08 09:55:48;;;;;;;3.20;1.70;;;23.30;41.50;;;21.53;45.55;102157.31;12238622;19;20248;-79
2022/05/08 09:59:50;;;;;;;3.40;1.60;;;23.40;40.20;;;21.70;45.49;102168.41;12235359;19;20172;-79
2022/05/08 10:03:53;;;;;;;3.70;1.70;;;23.40;39.90;;;21.79;44.67;102171.22;12237435;19;20050;-79
2022/05/08 10:07:55;;;;;;;2.50;1.60;;;23.40;39.40;;;21.86;44.83;102184.84;12235277;19;20011;-79
2022/05/08 10:16:42;;;;;;;4.53;1.70;;;23.70;39.40;;;22.09;44.13;102162.56;12235414;19;20011;-79
2022/05/08 10:21:06;;;;;;;8.13;1.50;;;23.70;39.00;;;22.20;44.23;102179.50;12238976;19;20073;-79
2022/05/08 10:25:15;;;;;;;2.88;1.55;;;23.90;39.30;;;22.17;43.58;102161.94;12235991;19;20203;-79
2022/05/08 10:29:17;;;;;;;4.43;1.48;;;23.90;38.10;;;22.21;43.52;102168.72;12235183;19;20015;-79
2022/05/08 10:33:18;;;;;;;6.43;1.45;;;24.00;38.10;;;22.19;43.70;102164.50;12236303;19;20025;-79
2022/05/08 10:37:27;;;;;;;2.58;1.30;;;24.00;38.20;;;22.22;43.01;102157.09;12234502;19;20052;-79
2022/05/08 10:41:44;;;;;;;4.05;1.30;;;24.00;37.90;;;22.13;42.82;102141.84;12236609;19;20048;-80
2022/05/08 10:45:46;;;;;;;3.88;1.60;;;24.10;37.70;;;22.21;42.62;102143.94;12232384;19;20690;-80
2022/05/08 10:49:48;;;;;;;4.00;1.52;;;24.10;37.60;;;22.36;42.59;102169.28;12233574;19;20014;-79
2022/05/08 10:53:49;;;;;;;5.13;1.50;;;24.00;37.70;;;22.42;42.83;102163.47;12233584;19;20006;-78
2022/05/08 10:57:53;;;;;;;4.35;1.40;;;24.10;37.70;;;22.50;42.76;102154.84;12232860;19;20015;-78
2022/05/08 11:01:55;;;;;;;3.22;1.20;;;24.20;37.60;;;22.58;42.63;102146.22;12238582;19;20021;-78
2022/05/08 11:05:58;;;;;;;3.83;1.27;;;24.20;37.90;;;22.77;42.45;102159.66;12239209;19;20088;-80
2022/05/08 11:10:00;;;;;;;2.72;1.48;;;24.30;37.70;;;22.83;41.66;102135.16;12238744;19;20433;-80
2022/05/08 11:14:01;;;;;;;2.83;1.33;;;24.40;37.30;;;22.87;41.49;102155.25;12235901;19;20534;-80
2022/05/08 11:18:15;;;;;;;3.45;1.30;;;24.40;36.80;;;22.73;41.19;102112.94;12237325;19;20481;-80
2022/05/08 11:22:16;;;;;;;3.13;1.00;;;24.60;36.70;;;22.97;41.76;102142.03;12237275;19;20048;-80
2022/05/08 11:26:26;;;;;;;3.28;1.45;;;24.60;36.90;;;22.97;41.77;102140.19;12238428;19;20484;-80
2022/05/08 11:30:33;;;;;;;3.65;1.33;;;24.70;36.90;;;22.88;41.30;102116.16;12237528;19;20014;-81
2022/05/08 11:38:58;;;;;;;4.80;1.40;;;24.80;36.70;;;23.16;40.92;102146.63;12234519;19;20018;-81
2022/05/08 11:43:00;;;;;;;2.03;1.10;;;24.80;36.00;;;23.21;40.92;102140.91;12249286;19;20352;-79
2022/05/08 11:47:10;;;;;;;4.75;1.17;;;24.90;36.10;;;23.27;40.17;102143.03;12248291;19;20042;-79
2022/05/08 11:51:20;;;;;;;3.67;1.40;;;24.90;35.60;;;23.23;40.09;102118.47;12249818;19;20025;-79
2022/05/08 11:55:21;;;;;;;3.10;1.35;;;25.00;36.00;;;23.31;40.39;102126.63;12246184;19;20071;-79
2022/05/08 11:59:26;;;;;;;3.30;1.20;;;25.00;35.60;;;23.44;40.27;102136.22;12243625;19;20497;-79
2022/05/08 12:03:28;;;;;;;3.15;1.42;;;25.10;35.60;;;23.42;39.92;102120.38;12245438;19;20471;-80
2022/05/08 12:07:41;;;;;;;2.97;1.30;;;25.10;35.30;;;23.50;39.27;102131.19;12248656;19;20011;-80
2022/05/08 12:11:43;;;;;;;2.42;1.30;;;25.10;34.90;;;23.48;39.71;102124.31;12247287;19;20471;-79
2022/05/08 12:15:44;;;;;;;2.42;1.38;;;25.20;34.90;;;23.49;39.50;102129.50;12246476;19;20014;-78
2022/05/08 12:19:57;;;;;;;2.38;1.00;;;25.20;34.80;;;23.53;38.77;102127.41;12243408;19;20022;-80
2022/05/08 12:23:59;;;;;;;1.98;0.93;;;25.20;34.30;;;23.61;38.81;102132.91;12244828;19;20014;-80
2022/05/08 12:28:02;;;;;;;6.15;1.42;;;25.20;34.50;;;23.61;38.77;102123.09;12248968;19;20339;-80
2022/05/08 12:32:04;;;;;;;2.08;0.88;;;25.30;34.40;;;23.65;38.31;102134.31;12245663;19;20036;-79
2022/05/08 12:36:07;;;;;;;1.85;1.52;;;25.30;34.00;;;23.52;38.14;102117.72;12244541;19;20018;-78
2022/05/08 12:40:09;;;;;;;2.45;1.27;;;25.40;34.00;;;23.53;38.01;102114.09;12243992;19;20022;-78
2022/05/08 12:44:11;;;;;;;2.55;1.00;;;25.40;33.70;;;23.60;37.75;102132.09;12243154;19;20055;-78
2022/05/08 12:48:17;;;;;;;1.65;0.90;;;25.30;33.60;;;23.61;37.55;102112.41;12245385;19;20018;-78
2022/05/08 12:52:20;;;;;;;2.17;1.00;;;25.40;33.40;;;23.75;37.88;102129.91;12243886;19;20011;-78
2022/05/08 12:56:22;;;;;;;1.65;0.80;;;25.40;33.70;;;23.67;37.63;102119.03;12244666;19;20017;-78
2022/05/08 13:00:23;;;;;;;4.68;1.63;;;25.40;33.40;;;23.77;37.63;102119.94;12241023;19;20018;-78
2022/05/08 13:04:25;;;;;;;4.65;1.55;;;25.50;33.30;;;23.84;37.44;102134.44;12241724;19;20056;-78
2022/05/08 13:08:27;;;;;;;1.88;1.10;;;25.30;33.00;;;23.81;37.23;102123.16;12245044;19;20021;-78
2022/05/08 13:12:28;;;;;;;3.25;1.08;;;25.60;33.50;;;23.83;36.84;102132.72;12243781;19;20017;-78
2022/05/08 13:16:32;;;;;;;4.07;1.17;;;25.50;32.90;;;23.83;36.91;102118.53;12244708;19;20014;-78
2022/05/08 13:20:34;;;;;;;2.20;0.95;;;25.50;32.80;;;23.87;36.74;102129.78;12242716;19;20023;-78
2022/05/08 13:24:35;;;;;;;1.25;0.95;;;25.50;32.70;;;23.83;36.20;102113.22;12239707;19;20101;-78
2022/05/08 13:28:37;;;;;;;1.95;1.00;;;25.60;32.40;;;23.62;35.91;102082.09;12242352;19;20383;-78
2022/05/08 13:32:39;;;;;;;1.83;1.20;;;25.60;32.10;;;23.83;36.10;102124.72;12241556;19;20336;-78
2022/05/08 13:36:41;;;;;;;2.22;1.98;;;25.60;32.20;;;23.83;35.91;102122.06;12241411;19;20380;-78
2022/05/08 13:40:43;;;;;;;4.75;4.03;;;25.50;31.90;;;23.80;35.82;102110.81;12243298;19;20027;-78
2022/05/08 13:44:45;;;;;;;3.25;2.22;;;25.50;31.70;;;23.73;35.63;102096.34;12239204;19;20006;-78
2022/05/08 13:48:47;;;;;;;3.85;1.55;;;25.60;31.70;;;23.78;35.50;102107.44;12241073;19;20022;-78
2022/05/08 13:52:49;;;;;;;3.60;1.30;;;25.50;31.20;;;23.78;35.20;102112.78;12241304;19;20034;-78
2022/05/08 13:56:51;;;;;;;1.63;1.10;;;25.50;31.50;;;23.72;34.76;102097.31;12241021;19;20015;-78
2022/05/08 14:00:53;;;;;;;2.22;0.95;;;25.40;31.20;;;23.58;35.09;102079.84;12241551;19;20013;-78
2022/05/08 14:04:54;;;;;;;2.53;0.98;;;25.40;31.20;;;23.72;34.97;102098.16;12238207;19;20021;-78
2022/05/08 14:08:56;;;;;;;1.75;0.90;;;25.40;31.00;;;23.68;34.60;102095.88;12241891;19;20034;-78
2022/05/08 14:12:58;;;;;;;3.45;1.13;;;25.40;30.90;;;23.70;34.66;102096.56;12241612;19;20081;-78
2022/05/08 14:17:00;;;;;;;1.13;0.88;;;25.30;30.90;;;23.66;33.95;102093.34;12241914;19;20456;-78
2022/05/08 14:21:03;;;;;;;2.38;1.13;;;25.30;30.60;;;23.59;33.67;102077.03;12241759;19;20011;-78
2022/05/08 14:25:05;;;;;;;1.50;0.85;;;25.40;30.40;;;23.57;33.85;102072.81;12237943;19;20019;-78
2022/05/08 14:29:07;;;;;;;1.10;0.82;;;25.40;30.20;;;23.64;33.84;102077.47;12242331;19;20021;-77
2022/05/08 14:37:28;;;;;;;1.75;0.90;;;25.40;29.90;;;23.73;33.11;102083.00;12238476;19;20014;-77
2022/05/08 14:41:32;;;;;;;1.17;0.73;;;25.40;29.70;;;23.67;33.29;102070.19;12240521;19;20404;-78
2022/05/08 14:45:35;;;;;;;2.17;1.02;;;25.40;29.80;;;23.83;32.64;102086.53;12238439;19;20456;-77
2022/05/08 14:49:37;;;;;;;6.75;1.00;;;25.20;29.40;;;23.82;32.81;102079.53;12219029;19;20006;-78
2022/05/08 14:53:40;;;;;;;1.63;1.00;;;25.50;29.50;;;23.70;32.31;102054.75;12236211;19;20015;-77
2022/05/08 14:57:42;;;;;;;2.33;1.13;;;25.40;29.40;;;23.79;32.45;102083.31;12234613;19;20010;-77
2022/05/08 15:01:45;;;;;;;3.38;1.20;;;25.50;29.20;;;23.64;32.28;102061.47;12236429;19;20014;-77
2022/05/08 15:05:49;;;;;;;1.20;0.65;;;25.50;29.10;;;23.65;31.76;102067.63;12237465;19;20010;-77
2022/05/08 15:09:51;;;;;;;2.40;0.98;;;25.40;28.80;;;23.58;31.72;102056.69;12237567;19;20641;-78
2022/05/08 15:13:53;;;;;;;2.33;1.17;;;25.30;28.90;;;23.60;31.75;102060.06;12235437;19;20011;-77
2022/05/08 15:22:15;;;;;;;2.65;1.10;;;25.30;29.00;;;23.53;31.56;102052.75;12247147;19;20018;-78
2022/05/08 15:26:17;;;;;;;1.25;0.77;;;25.30;29.00;;;23.60;31.24;102069.88;12250921;19;20011;-77
2022/05/08 15:30:19;;;;;;;1.38;1.10;;;25.30;28.90;;;23.49;31.43;102054.00;12246390;19;20017;-80
2022/05/08 15:34:21;;;;;;;2.17;0.98;;;25.30;28.90;;;23.60;30.91;102076.06;12242301;19;20014;-78
2022/05/08 15:38:24;;;;;;;2.47;0.82;;;25.20;29.10;;;23.59;31.29;102076.19;12244036;19;20011;-80
2022/05/08 15:42:26;;;;;;;2.85;1.10;;;25.30;29.50;;;23.51;30.94;102062.72;12244849;19;20397;-77
2022/05/08 15:46:27;;;;;;;1.40;1.00;;;25.20;29.00;;;23.58;31.42;102083.34;12246700;19;20042;-78
2022/05/08 15:50:29;;;;;;;6.13;1.15;;;25.50;29.40;;;23.52;30.96;102070.59;12246023;19;20605;-78
2022/05/08 15:54:31;;;;;;;1.55;1.13;;;25.20;29.10;;;23.53;31.09;102090.91;12244344;19;20498;-78
2022/05/08 15:58:32;;;;;;;2.22;0.95;;;25.20;28.90;;;23.29;30.49;102072.59;12243382;19;20190;-78
2022/05/08 16:02:36;;;;;;;2.40;1.00;;;25.10;28.30;;;23.02;31.05;102051.88;12243716;19;20011;-78
2022/05/08 16:06:37;;;;;;;2.10;1.15;;;25.00;28.60;;;23.18;30.68;102094.03;12246341;19;20028;-78
2022/05/08 16:10:39;;;;;;;1.75;1.05;;;25.00;28.70;;;23.17;30.69;102101.19;12243393;19;20015;-78
2022/05/08 16:23:21;;;;;;;4.00;1.40;;;24.80;28.70;;;22.98;30.41;102106.44;12244118;19;20007;-78
2022/05/08 16:27:23;;;;;;;2.05;0.90;;;24.70;28.70;;;22.87;30.79;102101.97;12242570;19;20021;-78
2022/05/08 16:31:24;;;;;;;2.45;1.20;;;24.70;28.90;;;22.84;30.69;102096.06;12242423;19;20038;-78
2022/05/08 16:35:26;;;;;;;4.38;1.38;;;24.60;28.70;;;22.74;30.59;102094.19;12244487;19;20010;-78
2022/05/08 16:39:27;;;;;;;1.98;1.25;;;24.60;28.80;;;22.75;30.27;102098.53;12239891;19;20028;-78
2022/05/08 16:43:29;;;;;;;2.88;1.20;;;24.50;28.60;;;22.64;30.19;102100.44;12240603;19;20010;-78
2022/05/08 16:47:31;;;;;;;2.53;1.25;;;24.20;28.60;;;22.54;30.06;102089.69;12243724;19;20015;-78
2022/05/08 16:51:34;;;;;;;2.25;1.05;;;24.40;28.50;;;22.60;30.21;102104.31;12241204;19;20021;-78
2022/05/08 16:55:36;;;;;;;1.90;1.00;;;24.50;28.50;;;22.53;30.04;102115.47;12242324;19;20111;-78
2022/05/08 16:59:38;;;;;;;4.20;1.38;;;24.30;28.40;;;22.43;29.88;102114.56;12240428;19;20107;-78
2022/05/08 17:03:39;;;;;;;1.65;1.08;;;24.20;28.40;;;22.34;30.06;102109.16;12241632;19;20023;-77
2022/05/08 17:07:41;;;;;;;1.27;0.82;;;24.30;28.40;;;22.26;29.97;102115.13;12242601;19;20027;-78
2022/05/08 17:11:42;;;;;;;1.48;1.13;;;24.00;28.30;;;22.17;29.92;102114.03;12241602;19;20014;-78
2022/05/08 17:15:45;;;;;;;1.85;0.98;;;24.00;28.50;;;22.12;29.52;102110.06;12242040;19;20014;-78
2022/05/08 17:19:48;;;;;;;1.55;1.05;;;23.90;28.30;;;22.17;30.03;102127.34;12239213;19;20739;-78
2022/05/08 17:23:50;;;;;;;1.70;0.98;;;23.90;28.40;;;21.80;29.76;102078.97;12238543;19;20476;-78
2022/05/08 17:32:13;;;;;;;1.58;0.90;;;23.80;28.40;;;21.92;30.05;102112.53;12242025;19;20100;-78